Fair Oaks Ranch, California
Current Conditions -  °F | °C
As of 1:51 AM on Sunday 23 Nov 2014 (Local Time) from KVNY Reporting Station
Clear Clear  
Wind Chill: 63°   Ceiling: Unl
Heat Index: 63°   Visibility: 10mi
Dew Point: 42°   Wind: 21mph
Humidity: 46%   Direction: 350°N
Pressure: 30.05"   Gusts: 33mph
Location:  34.4187°N, 118.412°W
Report Text: KVNY 230951Z 35018G29KT 320V030 10SM CLR 17/06 A3005 RMK AO2 PK WND 36031/0933 SLP169 T01720056
Loading
Personal Weather Stations






























Interactive Weather Map New forecast layout! Learn more

10-Day Weather Forecast

Advertisements
Track Severe Weather on mobile